sensor_id;sensor_type;location;lat;lon;timestamp;pressure;altitude;pressure_sealevel;temperature;humidity
57900;BME280;60605;53.716;19.940;2023-04-24T00:01:02;99396.71;;;13.48;77.15
57900;BME280;60605;53.716;19.940;2023-04-24T00:06:05;99391.52;;;13.47;77.39
57900;BME280;60605;53.716;19.940;2023-04-24T00:11:10;99386.14;;;13.44;77.54
57900;BME280;60605;53.716;19.940;2023-04-24T00:16:14;99376.98;;;13.38;77.50
57900;BME280;60605;53.716;19.940;2023-04-24T00:21:18;99374.91;;;13.30;77.77
57900;BME280;60605;53.716;19.940;2023-04-24T00:26:21;99369.29;;;13.23;78.20
57900;BME280;60605;53.716;19.940;2023-04-24T00:31:24;99364.31;;;13.18;79.04
57900;BME280;60605;53.716;19.940;2023-04-24T00:36:27;99364.08;;;13.16;79.34
57900;BME280;60605;53.716;19.940;2023-04-24T00:41:31;99361.98;;;13.14;79.53
57900;BME280;60605;53.716;19.940;2023-04-24T00:46:35;99363.14;;;13.13;79.44
57900;BME280;60605;53.716;19.940;2023-04-24T00:51:39;99364.66;;;13.12;79.41
57900;BME280;60605;53.716;19.940;2023-04-24T00:56:44;99364.16;;;13.11;79.41
57900;BME280;60605;53.716;19.940;2023-04-24T01:01:48;99362.67;;;13.08;79.54
57900;BME280;60605;53.716;19.940;2023-04-24T01:06:51;99361.22;;;13.07;80.06
57900;BME280;60605;53.716;19.940;2023-04-24T01:11:55;99362.81;;;13.06;79.98
57900;BME280;60605;53.716;19.940;2023-04-24T01:16:59;99362.25;;;13.03;79.93
57900;BME280;60605;53.716;19.940;2023-04-24T01:22:11;99361.53;;;13.00;79.97
57900;BME280;60605;53.716;19.940;2023-04-24T01:27:14;99364.78;;;12.97;79.97
57900;BME280;60605;53.716;19.940;2023-04-24T01:32:18;99365.13;;;12.94;80.16
57900;BME280;60605;53.716;19.940;2023-04-24T01:37:21;99363.48;;;12.90;80.44
57900;BME280;60605;53.716;19.940;2023-04-24T01:42:25;99359.16;;;12.88;80.73
57900;BME280;60605;53.716;19.940;2023-04-24T01:47:29;99363.63;;;12.86;80.95
57900;BME280;60605;53.716;19.940;2023-04-24T01:52:33;99368.43;;;12.87;81.16
57900;BME280;60605;53.716;19.940;2023-04-24T01:57:38;99362.56;;;12.88;81.36
57900;BME280;60605;53.716;19.940;2023-04-24T02:02:42;99363.98;;;12.88;81.63
57900;BME280;60605;53.716;19.940;2023-04-24T02:07:49;99363.05;;;12.87;81.74
57900;BME280;60605;53.716;19.940;2023-04-24T02:12:52;99359.19;;;12.85;81.83
57900;BME280;60605;53.716;19.940;2023-04-24T02:17:55;99359.92;;;12.83;82.00
57900;BME280;60605;53.716;19.940;2023-04-24T02:22:58;99350.51;;;12.81;82.12
57900;BME280;60605;53.716;19.940;2023-04-24T02:28:02;99346.25;;;12.78;82.35
57900;BME280;60605;53.716;19.940;2023-04-24T02:33:05;99337.98;;;12.75;82.69
57900;BME280;60605;53.716;19.940;2023-04-24T02:38:09;99330.41;;;12.74;83.07
57900;BME280;60605;53.716;19.940;2023-04-24T02:43:12;99328.89;;;12.72;83.20
57900;BME280;60605;53.716;19.940;2023-04-24T02:48:15;99328.37;;;12.71;83.70
57900;BME280;60605;53.716;19.940;2023-04-24T02:53:19;99326.42;;;12.70;84.33
57900;BME280;60605;53.716;19.940;2023-04-24T02:58:23;99318.30;;;12.71;84.80
57900;BME280;60605;53.716;19.940;2023-04-24T03:03:26;99315.49;;;12.72;85.12
57900;BME280;60605;53.716;19.940;2023-04-24T03:08:30;99314.55;;;12.72;85.25
57900;BME280;60605;53.716;19.940;2023-04-24T03:13:33;99309.30;;;12.72;85.24
57900;BME280;60605;53.716;19.940;2023-04-24T03:18:36;99309.81;;;12.71;85.12
57900;BME280;60605;53.716;19.940;2023-04-24T03:23:39;99311.82;;;12.70;85.07
57900;BME280;60605;53.716;19.940;2023-04-24T03:28:43;99314.12;;;12.68;85.28
57900;BME280;60605;53.716;19.940;2023-04-24T03:33:46;99312.73;;;12.68;85.45
57900;BME280;60605;53.716;19.940;2023-04-24T03:38:49;99311.70;;;12.69;85.50
57900;BME280;60605;53.716;19.940;2023-04-24T03:43:52;99310.17;;;12.72;85.56
57900;BME280;60605;53.716;19.940;2023-04-24T03:48:55;99307.85;;;12.77;85.44
57900;BME280;60605;53.716;19.940;2023-04-24T03:53:58;99304.93;;;12.81;85.40
57900;BME280;60605;53.716;19.940;2023-04-24T03:59:02;99305.05;;;12.86;85.48
57900;BME280;60605;53.716;19.940;2023-04-24T04:04:08;99304.04;;;12.90;85.46
57900;BME280;60605;53.716;19.940;2023-04-24T04:09:11;99305.94;;;12.95;85.28
57900;BME280;60605;53.716;19.940;2023-04-24T04:14:15;99310.55;;;12.99;85.27
57900;BME280;60605;53.716;19.940;2023-04-24T04:19:18;99314.84;;;13.04;85.28
57900;BME280;60605;53.716;19.940;2023-04-24T04:24:21;99314.23;;;13.07;85.42
57900;BME280;60605;53.716;19.940;2023-04-24T04:29:25;99315.63;;;13.12;85.48
57900;BME280;60605;53.716;19.940;2023-04-24T04:34:28;99314.38;;;13.20;85.33
57900;BME280;60605;53.716;19.940;2023-04-24T04:39:32;99314.10;;;13.35;84.94
57900;BME280;60605;53.716;19.940;2023-04-24T04:44:36;99306.03;;;13.53;84.47
57900;BME280;60605;53.716;19.940;2023-04-24T04:49:39;99304.45;;;13.74;83.84
57900;BME280;60605;53.716;19.940;2023-04-24T04:54:43;99310.02;;;13.92;83.11
57900;BME280;60605;53.716;19.940;2023-04-24T04:59:46;99312.33;;;14.09;82.57
57900;BME280;60605;53.716;19.940;2023-04-24T05:04:50;99315.23;;;14.27;82.54
57900;BME280;60605;53.716;19.940;2023-04-24T05:09:54;99312.59;;;14.38;82.24
57900;BME280;60605;53.716;19.940;2023-04-24T05:14:57;99313.69;;;14.41;82.41
57900;BME280;60605;53.716;19.940;2023-04-24T05:20:00;99314.17;;;14.39;82.63
57900;BME280;60605;53.716;19.940;2023-04-24T05:25:04;99321.01;;;14.38;83.37
57900;BME280;60605;53.716;19.940;2023-04-24T05:30:09;99324.54;;;14.46;84.71
57900;BME280;60605;53.716;19.940;2023-04-24T05:35:13;99328.77;;;14.63;85.66
57900;BME280;60605;53.716;19.940;2023-04-24T05:40:16;99326.52;;;14.85;85.23
57900;BME280;60605;53.716;19.940;2023-04-24T05:45:19;99333.02;;;15.04;84.25
57900;BME280;60605;53.716;19.940;2023-04-24T05:50:22;99337.84;;;15.15;83.17
57900;BME280;60605;53.716;19.940;2023-04-24T05:55:26;99338.61;;;15.27;83.07
57900;BME280;60605;53.716;19.940;2023-04-24T06:00:30;99336.63;;;15.34;82.77
57900;BME280;60605;53.716;19.940;2023-04-24T06:05:33;99337.51;;;15.35;82.74
57900;BME280;60605;53.716;19.940;2023-04-24T06:10:37;99337.09;;;15.33;83.24
57900;BME280;60605;53.716;19.940;2023-04-24T06:15:41;99340.20;;;15.33;84.06
57900;BME280;60605;53.716;19.940;2023-04-24T06:20:46;99336.95;;;15.37;84.70
57900;BME280;60605;53.716;19.940;2023-04-24T06:25:49;99337.30;;;15.40;85.13
57900;BME280;60605;53.716;19.940;2023-04-24T06:30:53;99343.29;;;15.43;85.57
57900;BME280;60605;53.716;19.940;2023-04-24T06:35:56;99344.55;;;15.45;85.97
57900;BME280;60605;53.716;19.940;2023-04-24T06:41:00;99344.17;;;15.49;86.29
57900;BME280;60605;53.716;19.940;2023-04-24T06:46:04;99337.94;;;15.52;86.09
57900;BME280;60605;53.716;19.940;2023-04-24T06:51:07;99339.44;;;15.58;84.95
57900;BME280;60605;53.716;19.940;2023-04-24T06:56:12;99337.48;;;15.67;83.02
57900;BME280;60605;53.716;19.940;2023-04-24T07:01:15;99332.50;;;15.76;80.78
57900;BME280;60605;53.716;19.940;2023-04-24T07:06:19;99332.17;;;15.82;79.04
57900;BME280;60605;53.716;19.940;2023-04-24T07:11:25;99330.30;;;15.85;79.53
57900;BME280;60605;53.716;19.940;2023-04-24T07:16:32;99333.12;;;15.75;80.63
57900;BME280;60605;53.716;19.940;2023-04-24T07:21:37;99330.96;;;15.58;82.37
57900;BME280;60605;53.716;19.940;2023-04-24T07:26:40;99330.72;;;15.40;83.97
57900;BME280;60605;53.716;19.940;2023-04-24T07:31:44;99307.80;;;15.20;85.30
57900;BME280;60605;53.716;19.940;2023-04-24T07:36:47;99284.81;;;15.03;87.30
57900;BME280;60605;53.716;19.940;2023-04-24T07:41:50;99297.12;;;14.98;89.20
57900;BME280;60605;53.716;19.940;2023-04-24T07:46:54;99294.89;;;15.21;90.97
57900;BME280;60605;53.716;19.940;2023-04-24T07:51:58;99290.77;;;15.95;91.61
57900;BME280;60605;53.716;19.940;2023-04-24T07:57:03;99281.91;;;17.68;88.68
57900;BME280;60605;53.716;19.940;2023-04-24T08:02:07;99284.91;;;20.65;79.02
57900;BME280;60605;53.716;19.940;2023-04-24T08:07:11;99282.70;;;23.04;69.03
57900;BME280;60605;53.716;19.940;2023-04-24T08:12:16;99283.42;;;24.45;63.15
57900;BME280;60605;53.716;19.940;2023-04-24T08:17:19;99282.64;;;24.54;59.02
57900;BME280;60605;53.716;19.940;2023-04-24T08:22:23;99283.69;;;25.37;56.06
57900;BME280;60605;53.716;19.940;2023-04-24T08:27:26;99285.97;;;26.46;54.00
57900;BME280;60605;53.716;19.940;2023-04-24T08:32:30;99284.33;;;27.81;50.29
57900;BME280;60605;53.716;19.940;2023-04-24T08:37:33;99282.80;;;27.73;47.37
57900;BME280;60605;53.716;19.940;2023-04-24T08:42:37;99276.67;;;26.72;47.59
57900;BME280;60605;53.716;19.940;2023-04-24T08:47:41;99276.52;;;27.19;47.49
57900;BME280;60605;53.716;19.940;2023-04-24T08:52:45;99280.02;;;28.87;44.15
57900;BME280;60605;53.716;19.940;2023-04-24T08:57:51;99282.98;;;29.60;39.94
57900;BME280;60605;53.716;19.940;2023-04-24T09:02:56;99278.88;;;29.92;41.36
57900;BME280;60605;53.716;19.940;2023-04-24T09:08:00;99275.77;;;29.60;40.52
57900;BME280;60605;53.716;19.940;2023-04-24T09:13:05;99273.02;;;27.84;42.26
57900;BME280;60605;53.716;19.940;2023-04-24T09:18:08;99271.41;;;26.53;45.01
57900;BME280;60605;53.716;19.940;2023-04-24T09:23:17;99273.77;;;25.64;45.96
57900;BME280;60605;53.716;19.940;2023-04-24T09:28:25;99273.48;;;25.27;45.62
57900;BME280;60605;53.716;19.940;2023-04-24T09:33:29;99270.80;;;25.86;44.64
57900;BME280;60605;53.716;19.940;2023-04-24T09:38:36;99260.77;;;26.44;42.55
57900;BME280;60605;53.716;19.940;2023-04-24T09:43:40;99249.13;;;26.42;41.21
57900;BME280;60605;53.716;19.940;2023-04-24T09:48:43;99246.40;;;26.19;41.39
57900;BME280;60605;53.716;19.940;2023-04-24T09:53:47;99245.13;;;26.22;40.60
57900;BME280;60605;53.716;19.940;2023-04-24T09:58:50;99247.03;;;26.07;41.84
57900;BME280;60605;53.716;19.940;2023-04-24T10:03:54;99246.60;;;26.01;42.11
57900;BME280;60605;53.716;19.940;2023-04-24T10:08:57;99249.02;;;25.74;43.17
57900;BME280;60605;53.716;19.940;2023-04-24T10:14:01;99240.61;;;25.79;43.61
57900;BME280;60605;53.716;19.940;2023-04-24T10:19:05;99241.23;;;25.60;43.23
57900;BME280;60605;53.716;19.940;2023-04-24T10:24:10;99241.82;;;25.15;43.96
57900;BME280;60605;53.716;19.940;2023-04-24T10:29:18;99234.45;;;25.07;44.62
57900;BME280;60605;53.716;19.940;2023-04-24T10:34:22;99225.67;;;25.16;43.68
57900;BME280;60605;53.716;19.940;2023-04-24T10:39:26;99225.73;;;25.05;43.40
57900;BME280;60605;53.716;19.940;2023-04-24T10:44:36;99224.02;;;25.09;43.13
57900;BME280;60605;53.716;19.940;2023-04-24T10:49:40;99222.98;;;25.56;42.50
57900;BME280;60605;53.716;19.940;2023-04-24T10:54:47;99217.70;;;25.94;41.14
57900;BME280;60605;53.716;19.940;2023-04-24T11:00:10;99218.86;;;26.22;40.82
57900;BME280;60605;53.716;19.940;2023-04-24T11:05:16;99215.88;;;26.57;40.09
57900;BME280;60605;53.716;19.940;2023-04-24T11:10:26;99209.98;;;26.63;39.34
57900;BME280;60605;53.716;19.940;2023-04-24T11:15:30;99211.45;;;26.66;40.21
57900;BME280;60605;53.716;19.940;2023-04-24T11:20:33;99209.46;;;26.81;40.26
57900;BME280;60605;53.716;19.940;2023-04-24T11:25:36;99216.08;;;26.64;40.36
57900;BME280;60605;53.716;19.940;2023-04-24T11:30:40;99214.14;;;26.17;40.53
57900;BME280;60605;53.716;19.940;2023-04-24T11:35:43;99212.84;;;25.67;40.10
57900;BME280;60605;53.716;19.940;2023-04-24T11:40:47;99216.21;;;25.29;41.09
57900;BME280;60605;53.716;19.940;2023-04-24T11:45:52;99218.16;;;25.07;41.48
57900;BME280;60605;53.716;19.940;2023-04-24T11:50:56;99217.58;;;24.90;42.15
57900;BME280;60605;53.716;19.940;2023-04-24T11:56:03;99211.91;;;24.81;43.36
57900;BME280;60605;53.716;19.940;2023-04-24T12:01:06;99214.85;;;24.53;42.80
57900;BME280;60605;53.716;19.940;2023-04-24T12:06:11;99209.98;;;23.94;43.40
57900;BME280;60605;53.716;19.940;2023-04-24T12:11:16;99200.71;;;22.92;46.57
57900;BME280;60605;53.716;19.940;2023-04-24T12:16:21;99192.92;;;21.99;49.14
57900;BME280;60605;53.716;19.940;2023-04-24T12:21:24;99183.23;;;21.61;51.40
57900;BME280;60605;53.716;19.940;2023-04-24T12:26:30;99177.83;;;21.49;53.07
57900;BME280;60605;53.716;19.940;2023-04-24T12:31:33;99171.70;;;21.47;54.11
57900;BME280;60605;53.716;19.940;2023-04-24T12:36:38;99167.38;;;21.47;54.84
57900;BME280;60605;53.716;19.940;2023-04-24T12:41:53;99157.68;;;21.48;54.87
57900;BME280;60605;53.716;19.940;2023-04-24T12:47:03;99152.44;;;21.59;54.08
57900;BME280;60605;53.716;19.940;2023-04-24T12:52:06;99145.91;;;21.80;56.93
57900;BME280;60605;53.716;19.940;2023-04-24T12:57:10;99137.40;;;22.13;57.49
57900;BME280;60605;53.716;19.940;2023-04-24T13:02:14;99132.98;;;22.46;56.50
57900;BME280;60605;53.716;19.940;2023-04-24T13:07:20;99121.13;;;22.88;53.33
57900;BME280;60605;53.716;19.940;2023-04-24T13:12:24;99106.30;;;23.33;47.44
57900;BME280;60605;53.716;19.940;2023-04-24T13:17:28;99096.14;;;23.98;44.72
57900;BME280;60605;53.716;19.940;2023-04-24T13:22:32;99091.95;;;24.56;41.56
57900;BME280;60605;53.716;19.940;2023-04-24T13:27:35;99082.04;;;25.02;41.53
57900;BME280;60605;53.716;19.940;2023-04-24T13:32:38;99072.95;;;25.32;39.52
57900;BME280;60605;53.716;19.940;2023-04-24T13:37:42;99075.09;;;25.34;37.98
57900;BME280;60605;53.716;19.940;2023-04-24T13:42:45;99070.41;;;25.42;38.39
57900;BME280;60605;53.716;19.940;2023-04-24T13:47:49;99070.39;;;25.46;38.37
57900;BME280;60605;53.716;19.940;2023-04-24T13:52:54;99065.59;;;25.58;38.22
57900;BME280;60605;53.716;19.940;2023-04-24T13:57:59;99063.29;;;25.75;37.65
57900;BME280;60605;53.716;19.940;2023-04-24T14:03:04;99064.48;;;25.82;36.85
57900;BME280;60605;53.716;19.940;2023-04-24T14:08:08;99059.70;;;25.44;36.05
57900;BME280;60605;53.716;19.940;2023-04-24T14:13:12;99061.42;;;24.88;37.23
57900;BME280;60605;53.716;19.940;2023-04-24T14:18:15;99060.36;;;24.61;37.58
57900;BME280;60605;53.716;19.940;2023-04-24T14:23:18;99060.32;;;24.05;37.65
57900;BME280;60605;53.716;19.940;2023-04-24T14:28:23;99059.20;;;23.73;39.11
57900;BME280;60605;53.716;19.940;2023-04-24T14:33:27;99053.90;;;23.36;39.95
57900;BME280;60605;53.716;19.940;2023-04-24T14:38:30;99043.92;;;23.02;40.57
57900;BME280;60605;53.716;19.940;2023-04-24T14:43:35;99040.41;;;22.68;40.23
57900;BME280;60605;53.716;19.940;2023-04-24T14:48:38;99036.52;;;22.49;40.55
57900;BME280;60605;53.716;19.940;2023-04-24T14:53:42;99031.03;;;22.43;40.24
57900;BME280;60605;53.716;19.940;2023-04-24T14:58:47;99031.23;;;22.38;40.35
57900;BME280;60605;53.716;19.940;2023-04-24T15:03:51;99020.81;;;22.42;40.59
57900;BME280;60605;53.716;19.940;2023-04-24T15:08:55;99025.52;;;22.44;40.41
57900;BME280;60605;53.716;19.940;2023-04-24T15:13:59;99020.67;;;22.53;40.76
57900;BME280;60605;53.716;19.940;2023-04-24T15:19:02;99022.67;;;22.69;40.84
57900;BME280;60605;53.716;19.940;2023-04-24T15:24:06;99019.55;;;22.88;40.96
57900;BME280;60605;53.716;19.940;2023-04-24T15:29:09;99020.50;;;23.05;40.48
57900;BME280;60605;53.716;19.940;2023-04-24T15:34:13;99031.86;;;23.07;39.95
57900;BME280;60605;53.716;19.940;2023-04-24T15:39:17;99048.05;;;22.74;39.03
57900;BME280;60605;53.716;19.940;2023-04-24T15:44:21;99050.73;;;21.89;39.77
57900;BME280;60605;53.716;19.940;2023-04-24T15:49:24;99055.71;;;20.68;45.37
57900;BME280;60605;53.716;19.940;2023-04-24T15:54:28;99058.95;;;19.12;51.90
57900;BME280;60605;53.716;19.940;2023-04-24T15:59:31;99057.13;;;18.06;55.41
57900;BME280;60605;53.716;19.940;2023-04-24T16:04:34;99064.89;;;17.72;54.37
57900;BME280;60605;53.716;19.940;2023-04-24T16:09:39;99064.82;;;17.87;54.60
57900;BME280;60605;53.716;19.940;2023-04-24T16:14:43;99059.27;;;18.09;54.52
57900;BME280;60605;53.716;19.940;2023-04-24T16:19:46;99054.42;;;18.26;54.37
57900;BME280;60605;53.716;19.940;2023-04-24T16:24:49;99054.69;;;18.37;54.62
57900;BME280;60605;53.716;19.940;2023-04-24T16:29:53;99047.47;;;18.46;54.13
57900;BME280;60605;53.716;19.940;2023-04-24T16:34:58;99049.61;;;18.48;53.88
57900;BME280;60605;53.716;19.940;2023-04-24T16:40:02;99061.21;;;18.48;54.21
57900;BME280;60605;53.716;19.940;2023-04-24T16:45:10;99058.97;;;18.39;54.11
57900;BME280;60605;53.716;19.940;2023-04-24T16:50:13;99051.09;;;18.31;53.35
57900;BME280;60605;53.716;19.940;2023-04-24T16:55:17;99045.56;;;18.21;53.27
57900;BME280;60605;53.716;19.940;2023-04-24T17:00:21;99050.79;;;18.06;53.34
57900;BME280;60605;53.716;19.940;2023-04-24T17:05:24;99056.69;;;17.90;53.68
57900;BME280;60605;53.716;19.940;2023-04-24T17:10:29;99046.98;;;17.73;54.04
57900;BME280;60605;53.716;19.940;2023-04-24T17:15:32;99050.45;;;17.56;54.51
57900;BME280;60605;53.716;19.940;2023-04-24T17:20:37;99051.08;;;17.39;55.07
57900;BME280;60605;53.716;19.940;2023-04-24T17:25:40;99046.12;;;17.24;55.84
57900;BME280;60605;53.716;19.940;2023-04-24T17:30:44;99048.48;;;17.10;56.64
57900;BME280;60605;53.716;19.940;2023-04-24T17:35:48;99049.14;;;16.95;57.29
57900;BME280;60605;53.716;19.940;2023-04-24T17:40:52;99044.36;;;16.79;57.99
57900;BME280;60605;53.716;19.940;2023-04-24T17:45:56;99049.95;;;16.66;58.64
57900;BME280;60605;53.716;19.940;2023-04-24T17:51:01;99062.82;;;16.53;59.01
57900;BME280;60605;53.716;19.940;2023-04-24T17:56:05;99062.99;;;16.42;59.38
57900;BME280;60605;53.716;19.940;2023-04-24T18:01:09;99070.35;;;16.31;60.46
57900;BME280;60605;53.716;19.940;2023-04-24T18:06:13;99071.59;;;16.19;61.56
57900;BME280;60605;53.716;19.940;2023-04-24T18:11:19;99069.38;;;16.06;62.23
57900;BME280;60605;53.716;19.940;2023-04-24T18:16:22;99069.05;;;15.94;63.03
57900;BME280;60605;53.716;19.940;2023-04-24T18:21:28;99077.28;;;15.81;63.77
57900;BME280;60605;53.716;19.940;2023-04-24T18:26:31;99083.61;;;15.70;64.61
57900;BME280;60605;53.716;19.940;2023-04-24T18:31:35;99092.48;;;15.58;65.58
57900;BME280;60605;53.716;19.940;2023-04-24T18:36:38;99095.13;;;15.47;66.49
57900;BME280;60605;53.716;19.940;2023-04-24T18:41:42;99105.42;;;15.37;67.10
57900;BME280;60605;53.716;19.940;2023-04-24T18:46:46;99118.91;;;15.28;67.70
57900;BME280;60605;53.716;19.940;2023-04-24T18:51:54;99128.15;;;15.20;68.62
57900;BME280;60605;53.716;19.940;2023-04-24T18:56:57;99133.96;;;15.13;69.26
57900;BME280;60605;53.716;19.940;2023-04-24T19:02:02;99138.52;;;15.07;69.85
57900;BME280;60605;53.716;19.940;2023-04-24T19:07:05;99144.52;;;15.00;70.59
57900;BME280;60605;53.716;19.940;2023-04-24T19:12:09;99150.29;;;14.93;71.67
57900;BME280;60605;53.716;19.940;2023-04-24T19:17:13;99153.45;;;14.87;72.02
57900;BME280;60605;53.716;19.940;2023-04-24T19:22:17;99156.02;;;14.81;72.67
57900;BME280;60605;53.716;19.940;2023-04-24T19:27:23;99152.90;;;14.78;73.52
57900;BME280;60605;53.716;19.940;2023-04-24T19:32:27;99150.91;;;14.73;73.86
57900;BME280;60605;53.716;19.940;2023-04-24T19:37:31;99153.01;;;14.67;73.96
57900;BME280;60605;53.716;19.940;2023-04-24T19:42:36;99155.44;;;14.58;74.23
57900;BME280;60605;53.716;19.940;2023-04-24T19:47:46;99163.67;;;14.47;74.46
57900;BME280;60605;53.716;19.940;2023-04-24T19:52:52;99167.80;;;14.31;75.38
57900;BME280;60605;53.716;19.940;2023-04-24T19:57:55;99167.60;;;14.10;76.16
57900;BME280;60605;53.716;19.940;2023-04-24T20:02:59;99164.15;;;13.89;77.05
57900;BME280;60605;53.716;19.940;2023-04-24T20:08:03;99166.45;;;13.68;77.85
57900;BME280;60605;53.716;19.940;2023-04-24T20:13:07;99165.18;;;13.47;78.94
57900;BME280;60605;53.716;19.940;2023-04-24T20:18:11;99159.84;;;13.29;80.14
57900;BME280;60605;53.716;19.940;2023-04-24T20:23:15;99160.73;;;13.13;81.13
57900;BME280;60605;53.716;19.940;2023-04-24T20:28:19;99151.01;;;12.97;81.85
57900;BME280;60605;53.716;19.940;2023-04-24T20:33:23;99148.21;;;12.79;82.69
57900;BME280;60605;53.716;19.940;2023-04-24T20:38:27;99135.23;;;12.65;84.37
57900;BME280;60605;53.716;19.940;2023-04-24T20:43:32;99122.41;;;12.56;85.81
57900;BME280;60605;53.716;19.940;2023-04-24T20:48:35;99113.05;;;12.51;86.34
57900;BME280;60605;53.716;19.940;2023-04-24T20:53:38;99112.59;;;12.49;86.45
57900;BME280;60605;53.716;19.940;2023-04-24T20:58:45;99107.50;;;12.43;86.91
57900;BME280;60605;53.716;19.940;2023-04-24T21:03:49;99101.05;;;12.38;87.57
57900;BME280;60605;53.716;19.940;2023-04-24T21:08:54;99104.52;;;12.34;88.31
57900;BME280;60605;53.716;19.940;2023-04-24T21:13:57;99099.39;;;12.29;88.26
57900;BME280;60605;53.716;19.940;2023-04-24T21:19:01;99095.52;;;12.24;88.55
57900;BME280;60605;53.716;19.940;2023-04-24T21:24:05;99092.55;;;12.20;88.50
57900;BME280;60605;53.716;19.940;2023-04-24T21:29:08;99088.63;;;12.16;88.56
57900;BME280;60605;53.716;19.940;2023-04-24T21:34:12;99082.20;;;12.13;88.93
57900;BME280;60605;53.716;19.940;2023-04-24T21:39:15;99078.48;;;12.09;89.24
57900;BME280;60605;53.716;19.940;2023-04-24T21:44:18;99076.48;;;12.07;89.41
57900;BME280;60605;53.716;19.940;2023-04-24T21:49:21;99071.36;;;12.08;89.98
57900;BME280;60605;53.716;19.940;2023-04-24T21:54:24;99066.53;;;12.08;89.84
57900;BME280;60605;53.716;19.940;2023-04-24T21:59:28;99058.04;;;12.05;89.92
57900;BME280;60605;53.716;19.940;2023-04-24T22:04:31;99054.19;;;12.05;90.25
57900;BME280;60605;53.716;19.940;2023-04-24T22:09:35;99049.98;;;12.06;90.49
57900;BME280;60605;53.716;19.940;2023-04-24T22:14:38;99045.33;;;12.07;91.02
57900;BME280;60605;53.716;19.940;2023-04-24T22:19:41;99042.98;;;12.08;91.16
57900;BME280;60605;53.716;19.940;2023-04-24T22:24:45;99038.73;;;12.08;91.38
57900;BME280;60605;53.716;19.940;2023-04-24T22:29:48;99036.77;;;12.10;92.06
57900;BME280;60605;53.716;19.940;2023-04-24T22:34:52;99028.81;;;12.12;92.21
57900;BME280;60605;53.716;19.940;2023-04-24T22:39:55;99025.98;;;12.13;92.36
57900;BME280;60605;53.716;19.940;2023-04-24T22:45:02;99024.36;;;12.13;92.86
57900;BME280;60605;53.716;19.940;2023-04-24T22:50:07;99020.88;;;12.12;92.89
57900;BME280;60605;53.716;19.940;2023-04-24T22:55:12;99018.19;;;12.11;93.10
57900;BME280;60605;53.716;19.940;2023-04-24T23:00:15;99014.41;;;12.08;93.33
57900;BME280;60605;53.716;19.940;2023-04-24T23:05:18;99016.13;;;12.06;93.50
57900;BME280;60605;53.716;19.940;2023-04-24T23:10:23;99016.09;;;12.03;93.53
57900;BME280;60605;53.716;19.940;2023-04-24T23:15:27;99013.63;;;12.00;93.78
57900;BME280;60605;53.716;19.940;2023-04-24T23:20:30;99010.81;;;11.98;93.89
57900;BME280;60605;53.716;19.940;2023-04-24T23:25:33;99010.21;;;11.97;94.13
57900;BME280;60605;53.716;19.940;2023-04-24T23:30:37;99006.77;;;11.96;94.53
57900;BME280;60605;53.716;19.940;2023-04-24T23:35:40;99004.95;;;11.95;94.38
57900;BME280;60605;53.716;19.940;2023-04-24T23:40:43;99011.80;;;11.94;94.47
57900;BME280;60605;53.716;19.940;2023-04-24T23:45:47;99019.08;;;11.91;94.42
57900;BME280;60605;53.716;19.940;2023-04-24T23:50:50;99021.77;;;11.88;94.51
57900;BME280;60605;53.716;19.940;2023-04-24T23:55:53;99025.11;;;11.85;94.99
